Time;durP1;ratioP1;P1;durP2;ratioP2;P2;SDS_P1;SDS_P2;PMS_P1;PMS_P2;Temp;Humidity;BMP_temperature;BMP_pressure;BME280_temperature;BME280_humidity;BME280_pressure;Samples;Min_cycle;Max_cycle;Signal;HPM_P1;HPM_P2
2023/04/27 00:02:47;;;;;;;21.30;12.90;;;;;;;-0.78;69.50;99565.02;436201;1254;139975;-61
2023/04/27 00:12:54;;;;;;;20.70;12.50;;;;;;;-0.90;70.19;99568.85;436311;1254;140162;-60
2023/04/27 00:23:00;;;;;;;18.00;12.60;;;;;;;-0.94;70.57;99576.65;436689;1254;140965;-59
2023/04/27 00:33:06;;;;;;;23.40;13.70;;;;;;;-0.77;71.10;99573.09;436916;1254;140616;-61
2023/04/27 00:43:11;;;;;;;26.30;12.50;;;;;;;-0.52;71.19;99582.10;436623;1254;140166;-59
2023/04/27 00:53:18;;;;;;;22.70;13.80;;;;;;;-0.31;71.39;99584.62;436328;1251;139831;-60
2023/04/27 01:03:24;;;;;;;17.80;12.40;;;;;;;-0.14;71.23;99583.78;436483;1254;139708;-61
2023/04/27 01:13:30;;;;;;;18.60;12.40;;;;;;;-0.09;71.42;99586.44;436848;1254;139083;-59
2023/04/27 01:23:35;;;;;;;17.40;11.00;;;;;;;-0.17;71.56;99586.41;436518;1254;139441;-60
2023/04/27 01:33:42;;;;;;;18.90;12.80;;;;;;;-0.40;71.79;99589.10;436144;1251;139882;-60
2023/04/27 01:43:47;;;;;;;16.20;11.50;;;;;;;-0.65;72.28;99589.55;436818;1254;139743;-61
2023/04/27 01:53:53;;;;;;;19.80;14.10;;;;;;;-0.86;72.75;99588.37;436797;1254;139055;-61
2023/04/27 02:03:59;;;;;;;22.90;12.90;;;;;;;-1.05;73.11;99600.38;436638;1252;139859;-61
2023/04/27 02:14:05;;;;;;;14.30;9.20;;;;;;;-1.23;73.42;99606.67;436506;1252;140998;-60
2023/04/27 02:24:11;;;;;;;20.00;12.10;;;;;;;-1.41;73.58;99604.68;436604;1251;139831;-61
2023/04/27 02:34:16;;;;;;;18.60;11.70;;;;;;;-1.61;74.21;99601.36;436363;1251;141046;-61
2023/04/27 02:44:22;;;;;;;14.10;11.10;;;;;;;-1.78;74.51;99601.95;436520;1251;140796;-60
2023/04/27 02:54:28;;;;;;;16.00;11.50;;;;;;;-1.92;75.04;99609.33;436225;1251;140092;-60
2023/04/27 03:04:35;;;;;;;23.90;14.20;;;;;;;-2.06;75.45;99611.73;436249;1254;139837;-60
2023/04/27 03:14:41;;;;;;;17.20;13.50;;;;;;;-2.20;75.67;99616.00;437155;1252;140543;-60
2023/04/27 03:24:47;;;;;;;15.00;9.20;;;;;;;-2.27;76.25;99628.08;436600;1251;141574;-61
2023/04/27 03:34:53;;;;;;;20.40;14.10;;;;;;;-2.23;76.80;99630.10;436486;1251;139191;-59
2023/04/27 03:44:59;;;;;;;18.50;12.40;;;;;;;-2.09;77.10;99632.35;436106;1250;140623;-61
2023/04/27 03:55:05;;;;;;;21.60;13.60;;;;;;;-1.85;77.18;99639.79;436562;1251;139604;-62
2023/04/27 04:05:13;;;;;;;18.50;13.20;;;;;;;-1.47;76.98;99645.81;436902;1251;139496;-61
2023/04/27 04:15:19;;;;;;;18.80;12.10;;;;;;;-0.98;76.80;99643.90;436380;1252;139502;-60
2023/04/27 04:25:27;;;;;;;23.30;15.10;;;;;;;-0.45;76.03;99647.14;436332;1251;139933;-60
2023/04/27 04:35:32;;;;;;;23.30;13.00;;;;;;;0.16;75.69;99656.16;436485;1250;140345;-60
2023/04/27 04:45:39;;;;;;;27.70;11.30;;;;;;;0.81;74.94;99668.56;436046;1249;139744;-60
2023/04/27 04:55:45;;;;;;;17.00;10.10;;;;;;;1.38;74.05;99680.00;436200;1250;139650;-61
2023/04/27 05:05:51;;;;;;;15.30;10.10;;;;;;;3.83;73.83;99681.64;436062;1254;140068;-60
2023/04/27 05:15:57;;;;;;;14.40;9.70;;;;;;;12.96;64.40;99667.41;437700;1254;141367;-61
2023/04/27 05:26:10;;;;;;;14.40;8.80;;;;;;;20.29;52.45;99657.16;436543;1251;139565;-61
2023/04/27 05:36:16;;;;;;;14.20;8.50;;;;;;;25.12;43.12;99654.48;436639;1251;138405;-61
2023/04/27 05:46:22;;;;;;;13.90;8.40;;;;;;;27.84;36.41;99659.40;436198;1252;138871;-65
2023/04/27 05:56:27;;;;;;;13.20;10.70;;;;;;;29.71;32.22;99664.45;436157;1254;140034;-64
2023/04/27 06:06:34;;;;;;;9.60;7.80;;;;;;;32.00;28.59;99663.87;436796;1254;140332;-65
2023/04/27 06:16:40;;;;;;;18.90;6.90;;;;;;;33.35;26.34;99665.16;436728;1251;139987;-64
2023/04/27 06:26:46;;;;;;;9.70;5.40;;;;;;;35.73;24.04;99656.33;436987;1251;140185;-65
2023/04/27 06:36:51;;;;;;;9.10;4.90;;;;;;;38.36;21.85;99661.79;437034;1251;138253;-65
2023/04/27 06:46:57;;;;;;;6.20;4.40;;;;;;;37.97;20.38;99662.56;436530;1254;139659;-65
2023/04/27 06:57:03;;;;;;;8.50;5.20;;;;;;;32.86;20.55;99662.69;436739;1254;140624;-66
2023/04/27 07:07:08;;;;;;;11.00;4.70;;;;;;;30.87;21.04;99663.19;436750;1249;139316;-65
2023/04/27 07:17:14;;;;;;;19.80;6.70;;;;;;;25.50;22.65;99668.82;436184;1250;159129;-65
2023/04/27 07:27:20;;;;;;;11.30;6.00;;;;;;;20.30;25.93;99692.64;436123;1251;138466;-65
2023/04/27 07:37:26;;;;;;;7.50;5.60;;;;;;;17.57;28.77;99707.65;436731;1253;138549;-65
2023/04/27 07:47:32;;;;;;;9.40;4.30;;;;;;;15.85;31.08;99714.63;437000;1250;140051;-65
2023/04/27 07:57:38;;;;;;;3.70;3.30;;;;;;;16.06;31.96;99711.30;436572;1251;139856;-64
2023/04/27 08:07:43;;;;;;;5.20;4.10;;;;;;;17.40;30.82;99710.13;436550;1251;138268;-67
2023/04/27 08:17:50;;;;;;;4.10;3.40;;;;;;;17.43;30.78;99716.14;436722;1254;140031;-65
2023/04/27 08:27:56;;;;;;;4.60;4.00;;;;;;;18.38;29.95;99710.55;435923;1251;139508;-65
2023/04/27 08:38:01;;;;;;;5.00;3.20;;;;;;;16.21;31.20;99714.45;436387;1251;138586;-65
2023/04/27 08:48:08;;;;;;;4.60;2.30;;;;;;;15.87;31.99;99708.82;436533;1251;138104;-64
2023/04/27 08:58:14;;;;;;;6.00;3.90;;;;;;;16.44;31.87;99711.64;436398;1253;140827;-67
2023/04/27 09:08:20;;;;;;;6.60;2.80;;;;;;;15.97;31.39;99709.70;436326;1251;139514;-66
2023/04/27 09:18:26;;;;;;;4.20;2.70;;;;;;;14.94;32.30;99710.25;437104;1254;139036;-65
2023/04/27 09:28:33;;;;;;;2.80;2.10;;;;;;;13.99;32.99;99711.38;437030;1250;138723;-65
2023/04/27 09:38:39;;;;;;;3.50;2.40;;;;;;;13.61;33.40;99711.09;436937;1250;139143;-65
2023/04/27 09:48:45;;;;;;;5.50;2.80;;;;;;;13.81;33.26;99710.11;437225;1251;138169;-65
2023/04/27 09:59:29;;;;;;;3.30;1.80;;;;;;;13.35;33.26;99709.11;436760;1251;139498;-66
2023/04/27 10:09:40;;;;;;;3.30;2.30;;;;;;;13.57;32.62;99715.26;437140;1251;138957;-65
2023/04/27 10:19:57;;;;;;;4.90;1.60;;;;;;;12.23;32.67;99716.60;436953;1251;138196;-63
2023/04/27 10:30:11;;;;;;;4.60;2.60;;;;;;;11.17;33.75;99726.92;437125;1254;138270;-68
2023/04/27 10:40:17;;;;;;;3.40;1.90;;;;;;;10.86;34.71;99731.33;436862;1250;138236;-67
2023/04/27 10:50:25;;;;;;;2.80;1.20;;;;;;;10.42;35.27;99737.83;437730;1250;138662;-68
2023/04/27 11:00:33;;;;;;;5.50;1.80;;;;;;;10.09;35.62;99736.63;437190;1254;138586;-68
2023/04/27 11:10:41;;;;;;;4.50;2.40;;;;;;;10.30;36.58;99741.34;438493;1250;138373;-68
2023/04/27 11:20:47;;;;;;;;;;;;;;;11.19;36.60;99732.21;437296;1251;140433;-68
2023/04/27 11:30:59;;;;;;;5.80;1.50;;;;;;;11.53;35.95;99739.00;436987;1251;125391;-66
2023/04/27 11:41:07;;;;;;;4.00;1.80;;;;;;;11.01;35.47;99745.23;436897;1251;138271;-67
2023/04/27 11:51:13;;;;;;;5.50;2.20;;;;;;;10.92;35.56;99744.77;437316;1255;138689;-67
2023/04/27 12:01:19;;;;;;;3.30;2.50;;;;;;;11.17;35.66;99739.03;436744;1250;138927;-67
2023/04/27 12:11:39;;;;;;;6.50;2.30;;;;;;;11.22;35.75;99746.05;437229;1254;138146;-67
2023/04/27 12:21:45;;;;;;;5.80;2.40;;;;;;;11.02;35.53;99749.25;436508;1254;139970;-66
2023/04/27 12:31:52;;;;;;;3.30;1.40;;;;;;;10.52;35.97;99752.09;437298;1251;139733;-68
2023/04/27 12:41:58;;;;;;;4.20;2.80;;;;;;;10.23;37.64;99769.95;436684;1250;138301;-68
2023/04/27 12:52:04;;;;;;;4.70;2.30;;;;;;;9.65;39.61;99788.30;436857;1254;139082;-68
2023/04/27 13:02:11;;;;;;;3.40;2.00;;;;;;;9.54;40.24;99793.29;437356;1255;140190;-68
2023/04/27 13:12:17;;;;;;;4.60;2.60;;;;;;;9.58;40.22;99790.47;437226;1254;138111;-67
2023/04/27 13:22:23;;;;;;;6.20;2.90;;;;;;;9.58;40.37;99790.29;437839;1250;138916;-66
2023/04/27 13:32:29;;;;;;;3.00;1.70;;;;;;;9.85;40.33;99785.96;437790;1250;137928;-66
2023/04/27 13:42:35;;;;;;;5.10;1.90;;;;;;;10.60;38.58;99772.80;437586;1251;138261;-67
2023/04/27 13:52:42;;;;;;;7.40;3.30;;;;;;;11.07;36.76;99769.07;437751;1251;140347;-67
2023/04/27 14:02:48;;;;;;;2.50;1.40;;;;;;;11.15;36.39;99773.86;437780;1251;139796;-65
2023/04/27 14:12:55;;;;;;;5.30;1.80;;;;;;;10.61;36.64;99773.08;438733;1251;138185;-66
2023/04/27 14:23:01;;;;;;;4.90;2.10;;;;;;;10.33;37.31;99776.88;438301;1250;138253;-66
2023/04/27 14:33:07;;;;;;;6.40;1.80;;;;;;;10.60;37.54;99785.96;437502;1250;138284;-66
2023/04/27 14:43:13;;;;;;;4.30;2.70;;;;;;;10.75;37.80;99787.85;436832;1251;138069;-65
2023/04/27 14:53:18;;;;;;;4.60;2.70;;;;;;;10.73;38.15;99793.55;435968;1256;138924;-67
2023/04/27 15:03:24;;;;;;;7.70;2.70;;;;;;;10.07;39.05;99809.16;436483;1256;138377;-66
2023/04/27 15:13:31;;;;;;;5.20;3.50;;;;;;;9.27;41.60;99821.17;436853;1250;138196;-68
2023/04/27 15:23:36;;;;;;;5.30;3.40;;;;;;;9.26;43.03;99823.13;437046;1251;140273;-67
2023/04/27 15:33:42;;;;;;;5.00;3.40;;;;;;;9.63;43.13;99819.34;436910;1256;138728;-67
2023/04/27 15:43:48;;;;;;;7.30;4.10;;;;;;;9.60;43.17;99828.46;436800;1254;139826;-66
2023/04/27 15:53:53;;;;;;;10.00;5.40;;;;;;;9.30;43.46;99822.39;440754;1252;138370;-67
2023/04/27 16:03:59;;;;;;;5.50;3.00;;;;;;;9.19;43.90;99816.68;436658;1251;139022;-66
2023/04/27 16:14:05;;;;;;;4.70;2.90;;;;;;;9.05;43.95;99820.94;437089;1251;138956;-65
2023/04/27 16:24:11;;;;;;;6.70;3.20;;;;;;;8.97;44.52;99820.83;436499;1255;138113;-68
2023/04/27 16:34:17;;;;;;;2.90;2.30;;;;;;;8.81;44.79;99827.29;436512;1251;139047;-67
2023/04/27 16:44:23;;;;;;;7.60;3.60;;;;;;;8.64;45.22;99826.45;436646;1251;139640;-66
2023/04/27 16:54:28;;;;;;;3.90;3.50;;;;;;;8.66;45.52;99827.54;436192;1251;138139;-66
2023/04/27 17:04:38;;;;;;;10.70;4.70;;;;;;;8.59;45.39;99830.36;436012;1256;137955;-66
2023/04/27 17:14:44;;;;;;;7.60;3.70;;;;;;;8.04;45.62;99834.63;436312;1254;138813;-66
2023/04/27 17:24:50;;;;;;;9.90;3.90;;;;;;;7.41;46.75;99837.98;436311;1256;138891;-66
2023/04/27 17:34:57;;;;;;;12.40;4.90;;;;;;;6.96;47.71;99842.97;436549;1255;139487;-66
2023/04/27 17:45:02;;;;;;;13.30;5.20;;;;;;;6.71;48.95;99843.58;436506;1254;138623;-68
2023/04/27 17:55:09;;;;;;;7.10;6.30;;;;;;;6.45;50.13;99849.71;436889;1256;138159;-68
2023/04/27 18:05:15;;;;;;;10.50;7.70;;;;;;;6.08;51.22;99862.19;436941;1253;138415;-66
2023/04/27 18:15:22;;;;;;;18.00;10.80;;;;;;;5.81;52.70;99872.48;436900;1253;138577;-67
2023/04/27 18:25:27;;;;;;;31.50;21.50;;;;;;;5.70;53.51;99882.27;436790;1254;140138;-67
2023/04/27 18:35:33;;;;;;;44.00;19.80;;;;;;;5.62;54.35;99885.88;436234;1255;141222;-67
2023/04/27 18:45:39;;;;;;;44.90;19.40;;;;;;;5.23;54.97;99888.71;436239;1255;139829;-65
2023/04/27 18:55:45;;;;;;;53.80;23.10;;;;;;;4.76;56.02;99893.34;436722;1254;138809;-67
2023/04/27 19:05:51;;;;;;;79.90;34.60;;;;;;;4.36;57.24;99891.40;436599;1257;138622;-67
2023/04/27 19:15:58;;;;;;;92.10;40.40;;;;;;;3.96;58.29;99895.46;436425;1254;150664;-67
2023/04/27 19:26:04;;;;;;;55.50;28.00;;;;;;;3.61;59.27;99902.05;437220;1251;139018;-66
2023/04/27 19:36:18;;;;;;;71.80;35.90;;;;;;;3.34;60.21;99908.21;436214;1254;139208;-66
2023/04/27 19:46:25;;;;;;;49.80;25.70;;;;;;;3.06;60.77;99912.30;436658;1256;139717;-68
2023/04/27 19:56:31;;;;;;;51.50;27.60;;;;;;;2.77;62.04;99920.52;436494;1257;141662;-68
2023/04/27 20:06:37;;;;;;;54.30;29.50;;;;;;;2.52;62.47;99923.91;436495;1254;139068;-67
2023/04/27 20:16:43;;;;;;;40.50;25.20;;;;;;;2.33;63.46;99932.01;436270;1254;139829;-67
2023/04/27 20:26:49;;;;;;;34.80;21.70;;;;;;;2.17;64.14;99938.42;436287;1254;140623;-67
2023/04/27 20:36:56;;;;;;;38.00;23.80;;;;;;;2.06;64.64;99942.45;436995;1251;139894;-67
2023/04/27 20:47:02;;;;;;;52.30;28.60;;;;;;;1.98;65.08;99941.45;436696;1254;139513;-67
2023/04/27 20:57:12;;;;;;;41.30;25.70;;;;;;;2.00;65.55;99945.89;436585;1254;140688;-67
2023/04/27 21:07:21;;;;;;;55.40;34.10;;;;;;;2.03;66.25;99945.84;438104;1254;138936;-68
2023/04/27 21:17:27;;;;;;;66.60;39.80;;;;;;;2.03;66.53;99949.61;436692;1251;140463;-66
2023/04/27 21:27:33;;;;;;;62.80;42.40;;;;;;;2.03;66.71;99953.95;436827;1251;139058;-67
2023/04/27 21:37:39;;;;;;;58.80;40.50;;;;;;;2.01;67.34;99949.48;437004;1254;139434;-67
2023/04/27 21:47:45;;;;;;;73.10;45.70;;;;;;;1.98;67.79;99951.82;436813;1251;138946;-66
2023/04/27 21:57:51;;;;;;;78.70;51.40;;;;;;;1.91;68.12;99959.57;436562;1253;139852;-65
2023/04/27 22:07:57;;;;;;;78.20;47.10;;;;;;;1.90;68.35;99960.61;436469;1251;140365;-67
2023/04/27 22:18:05;;;;;;;68.40;45.80;;;;;;;1.87;68.61;99954.81;436376;1251;139884;-66
2023/04/27 22:28:11;;;;;;;59.90;43.30;;;;;;;1.85;68.94;99958.66;435937;1251;139305;-65
2023/04/27 22:38:17;;;;;;;65.20;45.80;;;;;;;1.83;69.14;99965.43;436501;1254;141119;-66
2023/04/27 22:48:23;;;;;;;64.10;46.20;;;;;;;1.74;69.43;99966.14;436250;1253;140889;-68
2023/04/27 22:58:29;;;;;;;62.60;43.00;;;;;;;1.58;69.65;99960.27;436265;1251;140875;-65
2023/04/27 23:08:36;;;;;;;54.90;40.30;;;;;;;1.37;70.03;99960.02;436662;1254;141080;-68
2023/04/27 23:18:41;;;;;;;63.40;43.30;;;;;;;1.12;70.22;99957.89;436855;1254;139927;-68
2023/04/27 23:28:48;;;;;;;64.70;46.70;;;;;;;0.90;70.65;99960.02;436445;1254;139541;-66
2023/04/27 23:38:54;;;;;;;64.20;48.40;;;;;;;0.72;70.95;99955.88;436923;1254;139631;-68
2023/04/27 23:49:00;;;;;;;66.80;53.90;;;;;;;0.63;71.22;99956.02;436337;1254;139348;-67
2023/04/27 23:59:05;;;;;;;67.80;53.00;;;;;;;0.58;71.59;99953.70;436173;1254;139293;-68
